createdAt,value
2017-10-16T00:00:25.875Z,101757.14
2017-10-16T00:02:53.501Z,101749.56
2017-10-16T00:05:21.201Z,101757.27
2017-10-16T00:07:48.817Z,101751.16
2017-10-16T00:10:16.627Z,101755.93
2017-10-16T00:12:44.230Z,101757.26
2017-10-16T00:15:11.998Z,101749.69
2017-10-16T00:17:39.591Z,101754.58
2017-10-16T00:20:07.342Z,101760.67
2017-10-16T00:22:34.991Z,101762.83
2017-10-16T00:25:02.656Z,101757.13
2017-10-16T00:27:30.265Z,101763.50
2017-10-16T00:29:57.863Z,101765.52
2017-10-16T00:32:25.688Z,101762.39
2017-10-16T00:34:53.280Z,101765.38
2017-10-16T00:37:20.987Z,101767.01
2017-10-16T00:39:48.593Z,101764.45
2017-10-16T00:42:16.287Z,101761.05
2017-10-16T00:44:43.891Z,101766.88
2017-10-16T00:47:11.606Z,101763.52
2017-10-16T00:49:39.257Z,101762.83
2017-10-16T00:52:06.967Z,101761.89
2017-10-16T00:54:34.573Z,101761.23
2017-10-16T00:57:02.318Z,101762.73
2017-10-16T00:59:29.915Z,101769.63
2017-10-16T01:01:57.766Z,101765.86
2017-10-16T01:04:25.383Z,101765.33
2017-10-16T01:06:52.995Z,101761.52
2017-10-16T01:09:20.650Z,101759.09
2017-10-16T01:11:48.255Z,101754.66
2017-10-16T01:14:15.911Z,101753.83
2017-10-16T01:16:43.516Z,101748.41
2017-10-16T01:19:11.151Z,101748.03
2017-10-16T01:21:38.824Z,101749.63
2017-10-16T01:24:06.491Z,101744.50
2017-10-16T01:26:34.096Z,101742.87
2017-10-16T01:29:01.766Z,101745.30
2017-10-16T01:31:29.361Z,101742.20
2017-10-16T01:33:56.990Z,101740.06
2017-10-16T01:36:24.581Z,101740.06
2017-10-16T01:38:52.206Z,101737.08
2017-10-16T01:41:19.817Z,101740.44
2017-10-16T01:43:47.530Z,101740.47
2017-10-16T01:46:15.127Z,101738.30
2017-10-16T01:48:42.832Z,101738.30
2017-10-16T01:51:10.457Z,101727.34
2017-10-16T01:53:38.043Z,101726.13
2017-10-16T01:56:05.675Z,101727.23
2017-10-16T01:58:33.308Z,101725.33
2017-10-16T02:01:00.916Z,101725.47
2017-10-16T02:03:28.540Z,101721.97
2017-10-16T02:05:56.138Z,101720.20
2017-10-16T02:08:23.763Z,101726.67
2017-10-16T02:10:51.377Z,101726.30
2017-10-16T02:13:19.033Z,101724.66
2017-10-16T02:15:46.672Z,101723.31
2017-10-16T02:18:14.306Z,101731.83
2017-10-16T02:20:41.940Z,101730.20
2017-10-16T02:23:09.550Z,101728.99
2017-10-16T02:25:37.190Z,101724.27
2017-10-16T02:28:04.794Z,101725.49
2017-10-16T02:30:32.436Z,101711.42
2017-10-16T02:33:00.038Z,101714.27
2017-10-16T02:35:27.671Z,101715.47
2017-10-16T02:37:55.266Z,101707.09
2017-10-16T02:40:22.902Z,101710.35
2017-10-16T02:42:50.543Z,101701.44
2017-10-16T02:45:18.190Z,101712.11
2017-10-16T02:47:45.790Z,101702.79
2017-10-16T02:50:13.424Z,101709.14
2017-10-16T02:52:41.011Z,101720.47
2017-10-16T02:55:08.654Z,101721.02
2017-10-16T02:57:36.259Z,101723.72
2017-10-16T03:00:03.890Z,101715.50
2017-10-16T03:02:31.492Z,101723.05
2017-10-16T03:04:59.132Z,101730.22
2017-10-16T03:07:26.745Z,101738.47
2017-10-16T03:09:54.375Z,101739.14
2017-10-16T03:12:21.967Z,101734.66
2017-10-16T03:14:49.606Z,101731.86
2017-10-16T03:17:17.219Z,101723.33
2017-10-16T03:19:44.847Z,101726.17
2017-10-16T03:22:12.450Z,101723.06
2017-10-16T03:24:40.083Z,101726.43
2017-10-16T03:27:07.696Z,101717.49
2017-10-16T03:29:35.331Z,101710.59
2017-10-16T03:32:02.924Z,101723.73
2017-10-16T03:34:30.550Z,101720.74
2017-10-16T03:36:58.173Z,101718.32
2017-10-16T03:39:25.810Z,101710.48
2017-10-16T03:41:53.425Z,101723.45
2017-10-16T03:44:21.051Z,101728.33
2017-10-16T03:46:48.650Z,101724.14
2017-10-16T03:49:16.279Z,101730.48
2017-10-16T03:51:43.892Z,101733.59
2017-10-16T03:54:11.546Z,101735.36
2017-10-16T03:56:39.155Z,101725.34
2017-10-16T03:59:06.767Z,101723.98
2017-10-16T04:01:34.418Z,101717.52
2017-10-16T04:04:02.040Z,101715.34
2017-10-16T04:06:29.662Z,101709.41
2017-10-16T04:08:57.279Z,101716.98
2017-10-16T04:11:24.914Z,101713.72
2017-10-16T04:13:52.527Z,101708.03
2017-10-16T04:16:20.173Z,101713.58
2017-10-16T04:18:47.758Z,101713.30
2017-10-16T04:21:15.397Z,101706.72
2017-10-16T04:23:43.004Z,101720.23
2017-10-16T04:26:10.647Z,101720.34
2017-10-16T04:28:38.267Z,101720.21
2017-10-16T04:31:05.867Z,101714.00
2017-10-16T04:33:33.498Z,101711.96
2017-10-16T04:36:01.122Z,101718.47
2017-10-16T04:38:28.742Z,101713.34
2017-10-16T04:40:56.344Z,101722.25
2017-10-16T04:43:23.992Z,101712.75
2017-10-16T04:45:51.595Z,101712.34
2017-10-16T04:48:19.227Z,101714.52
2017-10-16T04:50:46.833Z,101719.77
2017-10-16T04:53:14.450Z,101712.88
2017-10-16T04:55:42.068Z,101722.75
2017-10-16T04:58:09.972Z,101714.78
2017-10-16T05:00:37.587Z,101718.42
2017-10-16T05:03:05.192Z,101714.79
2017-10-16T05:05:32.835Z,101720.47
2017-10-16T05:08:00.439Z,101713.28
2017-10-16T05:10:28.075Z,101719.66
2017-10-16T05:12:55.749Z,101713.83
2017-10-16T05:15:23.390Z,101710.58
2017-10-16T05:17:50.998Z,101714.24
2017-10-16T05:20:18.623Z,101711.94
2017-10-16T05:22:46.230Z,101706.95
2017-10-16T05:25:13.862Z,101718.00
2017-10-16T05:27:41.466Z,101722.48
2017-10-16T05:30:09.151Z,101722.48
2017-10-16T05:32:36.759Z,101723.67
2017-10-16T05:35:04.403Z,101719.91
2017-10-16T05:37:32.012Z,101709.64
2017-10-16T05:39:59.648Z,101707.21
2017-10-16T05:42:27.255Z,101698.02
2017-10-16T05:44:54.887Z,101696.66
2017-10-16T05:47:22.465Z,101696.12
2017-10-16T05:49:50.074Z,101703.68
2017-10-16T05:52:17.762Z,101711.34
2017-10-16T05:54:45.367Z,101715.94
2017-10-16T05:57:13.020Z,101715.55
2017-10-16T05:59:40.611Z,101716.23
2017-10-16T06:02:08.255Z,101724.73
2017-10-16T06:04:35.868Z,101727.03
2017-10-16T06:07:03.495Z,101710.04
2017-10-16T06:09:31.076Z,101705.84
2017-10-16T06:11:58.709Z,101697.33
2017-10-16T06:14:26.327Z,101694.92
2017-10-16T06:16:53.954Z,101706.52
2017-10-16T06:19:21.565Z,101715.69
2017-10-16T06:21:49.218Z,101714.91
2017-10-16T06:24:16.812Z,101731.37
2017-10-16T06:26:44.506Z,101747.86
2017-10-16T06:29:12.120Z,101731.40
2017-10-16T06:31:39.756Z,101720.23
2017-10-16T06:34:07.354Z,101716.55
2017-10-16T06:36:34.998Z,101721.52
2017-10-16T06:39:02.598Z,101730.16
2017-10-16T06:41:30.244Z,101729.34
2017-10-16T06:43:57.866Z,101738.25
2017-10-16T06:46:25.486Z,101739.05
2017-10-16T06:48:53.119Z,101725.28
2017-10-16T06:51:20.767Z,101732.17
2017-10-16T06:53:48.403Z,101724.50
2017-10-16T06:56:16.018Z,101725.02
2017-10-16T06:58:43.777Z,101730.04
2017-10-16T07:01:11.402Z,101734.06
2017-10-16T07:03:39.022Z,101728.28
2017-10-16T07:06:06.701Z,101732.47
2017-10-16T07:08:34.328Z,101723.81
2017-10-16T07:11:01.927Z,101722.07
2017-10-16T07:13:29.563Z,101736.09
2017-10-16T07:15:57.370Z,101723.80
2017-10-16T07:18:25.011Z,101730.55
2017-10-16T07:20:52.626Z,101739.59
2017-10-16T07:23:20.321Z,101744.20
2017-10-16T07:25:47.982Z,101743.93
2017-10-16T07:28:15.588Z,101746.78
2017-10-16T07:30:43.216Z,101750.59
2017-10-16T07:33:10.820Z,101748.14
2017-10-16T07:35:38.527Z,101755.36
2017-10-16T07:38:06.187Z,101767.91
2017-10-16T07:40:33.839Z,101769.41
2017-10-16T07:43:01.503Z,101770.47
2017-10-16T07:45:29.101Z,101773.73
2017-10-16T07:47:56.756Z,101772.25
2017-10-16T07:50:24.375Z,101775.34
2017-10-16T07:52:52.060Z,101777.78
2017-10-16T07:55:19.667Z,101778.72
2017-10-16T07:57:47.318Z,101783.44
2017-10-16T08:00:14.924Z,101780.17
2017-10-16T08:02:42.576Z,101777.19
2017-10-16T08:05:10.251Z,101779.90
2017-10-16T08:07:37.900Z,101782.05
2017-10-16T08:10:05.502Z,101781.20
2017-10-16T08:12:33.131Z,101778.80
2017-10-16T08:15:00.853Z,101786.36
2017-10-16T08:17:28.487Z,101783.36
2017-10-16T08:19:56.083Z,101784.00
2017-10-16T08:22:23.731Z,101785.19
2017-10-16T08:24:51.331Z,101785.28
2017-10-16T08:27:18.960Z,101787.02
2017-10-16T08:29:46.547Z,101790.64
2017-10-16T08:32:14.318Z,101791.94
2017-10-16T08:34:41.939Z,101795.26
2017-10-16T08:37:09.569Z,101802.14
2017-10-16T08:39:37.163Z,101809.00
2017-10-16T08:42:04.799Z,101807.75
2017-10-16T08:44:32.407Z,101804.81
2017-10-16T08:47:00.035Z,101810.17
2017-10-16T08:49:27.641Z,101808.34
2017-10-16T08:51:55.245Z,101800.27
2017-10-16T08:54:22.858Z,101809.14
2017-10-16T08:56:50.442Z,101806.09
2017-10-16T08:59:18.038Z,101800.87
2017-10-16T09:01:45.638Z,101808.94
2017-10-16T09:04:13.267Z,101805.34
2017-10-16T09:06:40.869Z,101800.52
2017-10-16T09:09:08.595Z,101798.94
2017-10-16T09:11:36.212Z,101798.84
2017-10-16T09:14:03.842Z,101798.91
2017-10-16T09:16:31.505Z,101803.41
2017-10-16T09:18:59.143Z,101799.06
2017-10-16T09:21:26.743Z,101800.19
2017-10-16T09:23:54.381Z,101803.09
2017-10-16T09:26:21.974Z,101810.35
2017-10-16T09:28:49.610Z,101809.94
2017-10-16T09:31:17.212Z,101808.12
2017-10-16T09:33:44.830Z,101814.98
2017-10-16T09:36:12.444Z,101810.36
2017-10-16T09:38:40.064Z,101813.13
2017-10-16T09:41:07.658Z,101818.47
2017-10-16T09:43:35.320Z,101809.36
2017-10-16T09:46:02.913Z,101815.41
2017-10-16T09:48:30.618Z,101819.76
2017-10-16T09:50:58.215Z,101816.08
2017-10-16T09:53:25.818Z,101816.12
2017-10-16T09:55:53.413Z,101813.09
2017-10-16T09:58:21.063Z,101817.52
2017-10-16T10:00:48.648Z,101813.11
2017-10-16T10:03:16.274Z,101815.06
2017-10-16T10:05:43.879Z,101807.34
2017-10-16T10:08:11.515Z,101815.92
2017-10-16T10:10:39.108Z,101814.05
2017-10-16T10:13:06.707Z,101810.31
2017-10-16T10:15:34.287Z,101815.07
2017-10-16T10:18:01.995Z,101812.26
2017-10-16T10:20:29.611Z,101804.68
2017-10-16T10:22:57.310Z,101808.61
2017-10-16T10:25:24.898Z,101808.91
2017-10-16T10:27:52.560Z,101817.23
2017-10-16T10:30:20.147Z,101811.12
2017-10-16T10:32:47.743Z,101809.45
2017-10-16T10:35:15.424Z,101802.80
2017-10-16T10:37:43.069Z,101802.94
2017-10-16T10:40:10.690Z,101803.77
2017-10-16T10:42:38.297Z,101802.66
2017-10-16T10:45:05.971Z,101800.08
2017-10-16T10:47:33.563Z,101800.84
2017-10-16T10:50:01.202Z,101801.63
2017-10-16T10:52:28.792Z,101793.48
2017-10-16T10:54:56.422Z,101791.92
2017-10-16T10:57:24.041Z,101788.33
2017-10-16T10:59:51.679Z,101784.86
2017-10-16T11:02:19.308Z,101779.42
2017-10-16T11:04:46.902Z,101782.17
2017-10-16T11:07:14.646Z,101779.02
2017-10-16T11:09:42.262Z,101773.78
2017-10-16T11:12:09.892Z,101773.55
2017-10-16T11:14:37.516Z,101768.72
2017-10-16T11:17:05.203Z,101770.42
2017-10-16T11:19:32.807Z,101769.80
2017-10-16T11:22:00.486Z,101774.77
2017-10-16T11:24:28.207Z,101765.89
2017-10-16T11:26:55.822Z,101760.52
2017-10-16T11:29:23.430Z,101759.40
2017-10-16T11:31:51.055Z,101757.09
2017-10-16T11:34:18.646Z,101758.70
2017-10-16T11:36:46.413Z,101758.46
2017-10-16T11:39:14.005Z,101759.95
2017-10-16T11:41:41.618Z,101750.69
2017-10-16T11:44:09.202Z,101760.98
2017-10-16T11:46:36.804Z,101751.15
2017-10-16T11:49:04.386Z,101749.39
2017-10-16T11:51:32.010Z,101751.94
2017-10-16T11:53:59.610Z,101755.86
2017-10-16T11:56:27.266Z,101751.77
2017-10-16T11:58:54.854Z,101751.09
2017-10-16T12:01:22.565Z,101735.16
2017-10-16T12:03:50.193Z,101731.70
2017-10-16T12:06:17.818Z,101720.73
2017-10-16T12:08:45.397Z,101720.97
2017-10-16T12:11:13.019Z,101721.77
2017-10-16T12:13:40.598Z,101725.86
2017-10-16T12:16:08.224Z,101735.27
2017-10-16T12:18:35.807Z,101732.72
2017-10-16T12:21:03.427Z,101725.41
2017-10-16T12:23:31.030Z,101728.02
2017-10-16T12:25:58.657Z,101721.37
2017-10-16T12:28:26.231Z,101720.52
2017-10-16T12:30:53.862Z,101710.63
2017-10-16T12:33:21.456Z,101709.58
2017-10-16T12:35:49.084Z,101708.10
2017-10-16T12:38:16.852Z,101704.56
2017-10-16T12:40:44.490Z,101704.24
2017-10-16T12:43:12.088Z,101698.52
2017-10-16T12:45:39.718Z,101692.59
2017-10-16T12:48:07.307Z,101691.78
2017-10-16T12:50:35.008Z,101694.11
2017-10-16T12:53:02.600Z,101697.25
2017-10-16T12:55:30.198Z,101687.07
2017-10-16T12:57:57.823Z,101680.30
2017-10-16T13:00:25.451Z,101676.57
2017-10-16T13:02:53.030Z,101669.97
2017-10-16T13:05:22.997Z,101667.27
2017-10-16T13:07:50.590Z,101664.37
2017-10-16T13:10:18.252Z,101658.85
2017-10-16T13:12:45.839Z,101661.19
2017-10-16T13:15:13.446Z,101658.51
2017-10-16T13:17:41.039Z,101652.30
2017-10-16T13:20:08.627Z,101653.78
2017-10-16T13:22:36.247Z,101649.94
2017-10-16T13:25:03.867Z,101642.39
2017-10-16T13:27:31.483Z,101641.29
2017-10-16T13:29:59.087Z,101638.06
2017-10-16T13:32:26.777Z,101634.63
2017-10-16T13:34:54.370Z,101635.03
2017-10-16T13:37:22.112Z,101632.55
2017-10-16T13:39:49.714Z,101630.40
2017-10-16T13:42:17.302Z,101631.52
2017-10-16T13:44:44.905Z,101631.09
2017-10-16T13:47:12.527Z,101625.81
2017-10-16T13:49:40.123Z,101622.58
2017-10-16T13:52:07.749Z,101621.07
2017-10-16T13:54:35.335Z,101618.30
2017-10-16T13:57:03.031Z,101613.42
2017-10-16T13:59:30.627Z,101615.62
2017-10-16T14:01:58.280Z,101616.92
2017-10-16T14:04:30.618Z,101612.77
2017-10-16T14:06:58.273Z,101619.87
2017-10-16T14:09:25.876Z,101620.08
2017-10-16T14:11:53.503Z,101623.41
2017-10-16T14:14:21.123Z,101627.91
2017-10-16T14:16:48.753Z,101626.26
2017-10-16T14:19:16.404Z,101631.55
2017-10-16T14:21:44.040Z,101630.55
2017-10-16T14:24:11.644Z,101620.01
2017-10-16T14:26:39.279Z,101615.10
2017-10-16T14:29:06.870Z,101609.27
2017-10-16T14:31:34.500Z,101604.59
2017-10-16T14:34:02.095Z,101616.64
2017-10-16T14:36:29.736Z,101619.28
2017-10-16T14:38:57.325Z,101613.37
2017-10-16T14:41:24.959Z,101606.70
2017-10-16T14:43:52.564Z,101608.17
2017-10-16T14:46:20.200Z,101610.28
2017-10-16T14:48:47.791Z,101605.41
2017-10-16T14:51:15.423Z,101610.08
2017-10-16T14:53:43.077Z,101602.59
2017-10-16T14:56:10.708Z,101603.52
2017-10-16T14:58:38.290Z,101595.63
2017-10-16T15:01:05.930Z,101603.90
2017-10-16T15:03:33.519Z,101607.97
2017-10-16T15:06:01.236Z,101608.69
2017-10-16T15:08:28.838Z,101595.66
2017-10-16T15:10:56.450Z,101601.41
2017-10-16T15:13:24.029Z,101600.09
2017-10-16T15:15:51.655Z,101603.78
2017-10-16T15:18:19.236Z,101599.81
2017-10-16T15:20:46.868Z,101590.32
2017-10-16T15:23:14.466Z,101592.36
2017-10-16T15:25:42.087Z,101579.59
2017-10-16T15:28:09.710Z,101575.30
2017-10-16T15:30:37.331Z,101572.91
2017-10-16T15:33:04.927Z,101569.94
2017-10-16T15:35:32.583Z,101564.34
2017-10-16T15:38:00.199Z,101567.98
2017-10-16T15:40:27.879Z,101572.84
2017-10-16T15:42:55.479Z,101568.11
2017-10-16T15:45:23.079Z,101575.11
2017-10-16T15:47:50.727Z,101570.08
2017-10-16T15:50:18.337Z,101574.07
2017-10-16T15:52:45.952Z,101578.03
2017-10-16T15:55:13.624Z,101589.05
2017-10-16T15:57:41.289Z,101592.48
2017-10-16T16:00:08.875Z,101594.25
2017-10-16T16:02:36.555Z,101589.05
2017-10-16T16:05:04.155Z,101589.11
2017-10-16T16:07:31.772Z,101588.22
2017-10-16T16:09:59.403Z,101591.20
2017-10-16T16:12:27.027Z,101590.16
2017-10-16T16:14:54.603Z,101590.45
2017-10-16T16:17:22.186Z,101590.77
2017-10-16T16:19:49.806Z,101589.66
2017-10-16T16:22:17.431Z,101583.92
2017-10-16T16:24:45.016Z,101578.39
2017-10-16T16:27:12.664Z,101581.73
2017-10-16T16:29:40.302Z,101583.24
2017-10-16T16:32:07.922Z,101583.64
2017-10-16T16:34:35.515Z,101586.34
2017-10-16T16:37:03.179Z,101578.69
2017-10-16T16:39:30.774Z,101584.84
2017-10-16T16:41:58.416Z,101581.11
2017-10-16T16:44:26.055Z,101579.47
2017-10-16T16:46:53.642Z,101580.33
2017-10-16T16:49:21.274Z,101581.83
2017-10-16T16:51:48.884Z,101580.02
2017-10-16T16:54:16.525Z,101575.99
2017-10-16T16:56:44.134Z,101583.16
2017-10-16T16:59:11.771Z,101583.64
2017-10-16T17:01:39.380Z,101585.89
2017-10-16T17:04:07.035Z,101589.06
2017-10-16T17:06:34.669Z,101591.47
2017-10-16T17:09:02.289Z,101596.48
2017-10-16T17:11:29.882Z,101595.50
2017-10-16T17:13:59.230Z,101602.63
2017-10-16T17:16:26.831Z,101603.58
2017-10-16T17:18:54.483Z,101600.77
2017-10-16T17:21:22.072Z,101601.56
2017-10-16T17:23:49.791Z,101601.52
2017-10-16T17:26:17.401Z,101596.06
2017-10-16T17:28:45.022Z,101596.48
2017-10-16T17:31:12.644Z,101590.63
2017-10-16T17:33:40.248Z,101590.73
2017-10-16T17:36:07.940Z,101593.57
2017-10-16T17:38:35.545Z,101591.70
2017-10-16T17:41:03.185Z,101588.45
2017-10-16T17:43:30.802Z,101590.94
2017-10-16T17:45:58.451Z,101585.78
2017-10-16T17:48:26.068Z,101587.53
2017-10-16T17:50:53.716Z,101590.46
2017-10-16T17:53:21.315Z,101591.81
2017-10-16T17:55:48.960Z,101592.60
2017-10-16T17:58:16.551Z,101594.81
2017-10-16T18:00:44.187Z,101593.70
2017-10-16T18:03:11.837Z,101595.28
2017-10-16T18:05:39.543Z,101595.00
2017-10-16T18:08:07.141Z,101590.61
2017-10-16T18:10:34.765Z,101589.02
2017-10-16T18:13:02.362Z,101595.94
2017-10-16T18:15:29.994Z,101591.48
2017-10-16T18:17:57.605Z,101594.68
2017-10-16T18:20:25.240Z,101592.11
2017-10-16T18:22:52.839Z,101596.61
2017-10-16T18:25:20.491Z,101597.66
2017-10-16T18:27:48.251Z,101606.63
2017-10-16T18:30:15.895Z,101605.57
2017-10-16T18:32:43.515Z,101603.95
2017-10-16T18:35:11.171Z,101598.35
2017-10-16T18:37:38.862Z,101596.81
2017-10-16T18:40:06.507Z,101600.53
2017-10-16T18:42:34.107Z,101605.56
2017-10-16T18:45:01.703Z,101607.70
2017-10-16T18:47:29.354Z,101609.06
2017-10-16T18:49:56.994Z,101616.44
2017-10-16T18:52:24.648Z,101617.17
2017-10-16T18:54:52.254Z,101619.46
2017-10-16T18:57:19.943Z,101626.63
2017-10-16T18:59:47.565Z,101628.14
2017-10-16T19:02:15.230Z,101628.14
2017-10-16T19:04:42.851Z,101632.88
2017-10-16T19:07:10.497Z,101622.63
2017-10-16T19:09:38.100Z,101626.63
2017-10-16T19:12:05.746Z,101619.84
2017-10-16T19:14:33.360Z,101619.30
2017-10-16T19:17:00.991Z,101622.45
2017-10-16T19:19:28.609Z,101617.11
2017-10-16T19:21:56.276Z,101618.20
2017-10-16T19:24:23.897Z,101618.90
2017-10-16T19:26:51.507Z,101613.92
2017-10-16T19:29:19.131Z,101614.68
2017-10-16T19:31:46.791Z,101616.65
2017-10-16T19:34:14.381Z,101619.80
2017-10-16T19:36:42.154Z,101612.96
2017-10-16T19:39:09.754Z,101615.77
2017-10-16T19:41:37.497Z,101611.47
2017-10-16T19:44:05.109Z,101610.05
2017-10-16T19:46:32.744Z,101615.98
2017-10-16T19:49:00.345Z,101615.38
2017-10-16T19:51:27.968Z,101624.70
2017-10-16T19:53:55.574Z,101618.17
2017-10-16T19:56:23.231Z,101621.05
2017-10-16T19:58:50.880Z,101626.11
2017-10-16T20:01:18.547Z,101633.28
2017-10-16T20:03:46.184Z,101633.31
2017-10-16T20:06:13.839Z,101622.06
2017-10-16T20:08:41.488Z,101633.95
2017-10-16T20:11:09.119Z,101636.86
2017-10-16T20:13:36.776Z,101642.60
2017-10-16T20:16:04.370Z,101644.67
2017-10-16T20:18:32.035Z,101640.30
2017-10-16T20:20:59.646Z,101636.56
2017-10-16T20:23:27.299Z,101631.84
2017-10-16T20:25:54.879Z,101638.64
2017-10-16T20:28:22.620Z,101636.79
2017-10-16T20:30:50.238Z,101644.00
2017-10-16T20:33:17.866Z,101641.58
2017-10-16T20:35:45.479Z,101643.55
2017-10-16T20:38:13.096Z,101638.62
2017-10-16T20:40:40.703Z,101642.30
2017-10-16T20:43:08.331Z,101640.74
2017-10-16T20:45:35.939Z,101641.63
2017-10-16T20:48:03.586Z,101644.47
2017-10-16T20:50:31.179Z,101644.55
2017-10-16T20:52:58.830Z,101644.31
2017-10-16T20:55:26.481Z,101650.41
2017-10-16T20:57:54.123Z,101649.94
2017-10-16T21:00:21.717Z,101655.38
2017-10-16T21:02:49.604Z,101656.59
2017-10-16T21:05:17.344Z,101665.20
2017-10-16T21:07:45.003Z,101661.16
2017-10-16T21:10:12.620Z,101659.89
2017-10-16T21:12:40.311Z,101659.21
2017-10-16T21:15:07.907Z,101658.03
2017-10-16T21:17:35.594Z,101659.73
2017-10-16T21:20:03.186Z,101657.77
2017-10-16T21:22:30.848Z,101662.62
2017-10-16T21:24:58.463Z,101664.49
2017-10-16T21:27:26.089Z,101666.31
2017-10-16T21:29:53.675Z,101661.30
2017-10-16T21:32:21.331Z,101663.03
2017-10-16T21:34:48.976Z,101658.58
2017-10-16T21:37:16.593Z,101654.17
2017-10-16T21:39:44.239Z,101654.22
2017-10-16T21:42:11.864Z,101656.02
2017-10-16T21:44:39.442Z,101659.70
2017-10-16T21:47:07.075Z,101660.35
2017-10-16T21:49:34.658Z,101664.19
2017-10-16T21:52:02.303Z,101669.76
2017-10-16T21:54:29.900Z,101663.48
2017-10-16T21:56:57.556Z,101658.97
2017-10-16T21:59:25.176Z,101652.12
2017-10-16T22:01:52.798Z,101655.30
2017-10-16T22:04:20.403Z,101656.92
2017-10-16T22:06:48.028Z,101650.30
2017-10-16T22:09:15.671Z,101652.20
2017-10-16T22:11:43.302Z,101650.84
2017-10-16T22:14:10.894Z,101649.80
2017-10-16T22:16:38.559Z,101652.70
2017-10-16T22:19:06.170Z,101651.39
2017-10-16T22:21:33.800Z,101652.77
2017-10-16T22:24:01.422Z,101655.88
2017-10-16T22:26:29.050Z,101658.56
2017-10-16T22:28:56.689Z,101662.11
2017-10-16T22:31:24.450Z,101657.61
2017-10-16T22:33:52.102Z,101652.64
2017-10-16T22:36:19.723Z,101661.05
2017-10-16T22:38:47.401Z,101655.19
2017-10-16T22:41:15.020Z,101657.92
2017-10-16T22:43:42.614Z,101664.99
2017-10-16T22:46:10.263Z,101661.50
2017-10-16T22:48:40.646Z,101657.95
2017-10-16T22:51:09.873Z,101657.58
2017-10-16T22:53:37.525Z,101652.05
2017-10-16T22:56:05.106Z,101657.89
2017-10-16T22:58:32.736Z,101655.70
2017-10-16T23:01:00.335Z,101652.78
2017-10-16T23:03:27.968Z,101650.81
2017-10-16T23:05:55.555Z,101652.86
2017-10-16T23:08:23.190Z,101650.56
2017-10-16T23:10:50.794Z,101648.94
2017-10-16T23:13:18.415Z,101650.16
2017-10-16T23:15:46.041Z,101656.13
2017-10-16T23:18:13.697Z,101652.62
2017-10-16T23:20:41.283Z,101648.94
2017-10-16T23:23:08.915Z,101649.92
2017-10-16T23:25:36.531Z,101646.63
2017-10-16T23:28:04.172Z,101647.20
2017-10-16T23:30:31.777Z,101645.45
2017-10-16T23:32:59.394Z,101642.74
2017-10-16T23:35:26.982Z,101644.96
2017-10-16T23:37:54.646Z,101640.21
2017-10-16T23:40:22.247Z,101645.34
2017-10-16T23:42:49.893Z,101641.20
2017-10-16T23:45:17.490Z,101645.09
2017-10-16T23:47:45.095Z,101643.61
2017-10-16T23:50:12.772Z,101638.84
2017-10-16T23:52:40.391Z,101641.98
2017-10-16T23:55:08.019Z,101644.56
2017-10-16T23:57:35.618Z,101645.92
